Stefarion — DJ2142 — position and weather

sailwx.info

Track history (hours):
 
Tides and Currents Weather Stations Pressure Air Temp Water Temp Dewpoint Dewpoint Depression Visibility Wind Speed Wind Dir Waves Ship Positions

Stefarion

Last reported at 2014-Jul-21 15:25 UTC. Time now 2014-Jul-22 19:49 UTC.
Position N 51°36' E 003°43'.

Length 12 m.

Type: Sailing vessel. MMSI: 211203080.

Date/timePositionNaut miles runAvg speedWind from/ knotsBaromVisibWave heightAir tempDewpointWater temp
2014-Jul-21 15:25N 51°36' E 003°43'3 0.6
2014-Jul-21 11:15N 51°37' E 003°40'2 2.5
2014-Jul-21 10:33N 51°37' E 003°42'1 0.9
2014-Jul-21 09:26N 51°36' E 003°43'1 0.0
2014-Jul-20 16:33N 51°36' E 003°44'4 4.0
2014-Jul-20 15:33N 51°38' E 003°49'2 2.0
2014-Jul-20 14:32N 51°40' E 003°51'1 1.0
2014-Jul-20 13:33N 51°41' E 003°50'2 2.2
2014-Jul-20 12:31N 51°38' E 003°51'1 0.8
2014-Jul-20 11:33N 51°38' E 003°50'3 2.0
2014-Jul-20 10:03N 51°37' E 003°46'1 1.9
2014-Jul-20 09:33N 51°36' E 003°44'226 7.5
2014-Jul-19 03:20N 49°23' E 008°30'7 8.8
2014-Jul-19 02:32N 49°16' E 008°27'1111.2
2014-Jul-19 01:33N 49°06' E 008°21'2 1.6
2014-Jul-19 00:33N 49°04' E 008°20'0 0.0
2014-Jul-18 23:33N 49°04' E 008°20'0 0.0
2014-Jul-18 22:33N 49°04' E 008°20'0 0.2
2014-Jul-18 21:33N 49°04' E 008°20'0 0.0
2014-Jul-18 20:33N 49°04' E 008°20'0 0.0
2014-Jul-18 19:33N 49°04' E 008°20'0 0.0
2014-Jul-18 18:33N 49°04' E 008°20'0 0.0
2014-Jul-18 17:33N 49°04' E 008°20'0 0.0
2014-Jul-18 16:33N 49°04' E 008°20'0 0.0
2014-Jul-18 15:33N 49°04' E 008°20'0 0.0
2014-Jul-18 14:33N 49°04' E 008°20'0 0.2
2014-Jul-18 13:33N 49°04' E 008°20'0 0.0
2014-Jul-18 12:33N 49°04' E 008°20'0 0.0
2014-Jul-18 11:33N 49°04' E 008°20'0 0.0
2014-Jul-18 10:33N 49°04' E 008°20'0 0.0
2014-Jul-18 09:33N 49°04' E 008°20'0 0.0
2014-Jul-18 08:33N 49°04' E 008°20'0 0.0
2014-Jul-18 07:33N 49°04' E 008°20'0 0.0
2014-Jul-18 06:33N 49°04' E 008°20'0 0.0
2014-Jul-18 05:33N 49°04' E 008°20'0 0.0
2014-Jul-18 04:33N 49°04' E 008°20'0 0.0
2014-Jul-18 03:33N 49°04' E 008°20'0 0.0
2014-Jul-18 02:33N 49°04' E 008°20'0 0.0
2014-Jul-18 01:33N 49°04' E 008°20'0 0.0
2014-Jul-18 00:33N 49°04' E 008°20'0 0.0
2014-Jul-17 23:33N 49°04' E 008°20'0 0.0
2014-Jul-17 22:33N 49°04' E 008°20'0 0.0
2014-Jul-17 21:33N 49°04' E 008°20'0 0.5
2014-Jul-17 20:33N 49°05' E 008°20'6 6.1
2014-Jul-17 19:33N 49°11' E 008°23'6 6.0
2014-Jul-17 18:33N 49°16' E 008°27'5 5.0
2014-Jul-17 17:28N 49°21' E 008°29'22610.6
2014-Jul-16 20:06N 51°36' E 003°43'0 0.9
2014-Jul-16 19:33N 51°36' E 003°44'4 4.3
2014-Jul-16 18:33N 51°37' E 003°50'1 0.8
2014-Jul-16 17:33N 51°37' E 003°52'3 3.3
2014-Jul-16 16:33N 51°37' E 003°46'2 1.0
2014-Jul-16 14:16N 51°36' E 003°43'2 2.8
2014-Jul-16 13:33N 51°36' E 003°46'3 3.3
2014-Jul-16 12:33N 51°36' E 003°51'1 0.4
2014-Jul-16 11:23N 51°36' E 003°51'0 0.0
2014-Jul-16 10:29N 51°36' E 003°51'0 0.0
2014-Jul-16 07:33N 51°36' E 003°51'0 0.0
2014-Jul-16 06:33N 51°36' E 003°51'124 2.4
2014-Jul-14 03:23N 50°55' E 006°58'17 1.1
2014-Jul-13 11:33N 51°11' E 006°48'4 3.9
2014-Jul-13 10:34N 51°14' E 006°44'  
Track history (hours):
 
Tides and Currents Weather Stations Pressure Air Temp Water Temp Dewpoint Dewpoint Depression Visibility Wind Speed Wind Dir Waves Ship Positions

Stefarion

Last reported at 2014-Jul-21 15:25 UTC. Time now 2014-Jul-22 19:49 UTC.
Position N 51°36' E 003°43'.

Length 12 m.

Type: Sailing vessel. MMSI: 211203080.

Date/timePositionNaut miles runAvg speedWind from/ knotsBaromVisibWave heightAir tempDewpointWater temp
2014-Jul-21 15:25N 51°36' E 003°43'3 0.6
2014-Jul-21 11:15N 51°37' E 003°40'2 2.5
2014-Jul-21 10:33N 51°37' E 003°42'1 0.9
2014-Jul-21 09:26N 51°36' E 003°43'1 0.0
2014-Jul-20 16:33N 51°36' E 003°44'4 4.0
2014-Jul-20 15:33N 51°38' E 003°49'2 2.0
2014-Jul-20 14:32N 51°40' E 003°51'1 1.0
2014-Jul-20 13:33N 51°41' E 003°50'2 2.2
2014-Jul-20 12:31N 51°38' E 003°51'1 0.8
2014-Jul-20 11:33N 51°38' E 003°50'3 2.0
2014-Jul-20 10:03N 51°37' E 003°46'1 1.9
2014-Jul-20 09:33N 51°36' E 003°44'226 7.5
2014-Jul-19 03:20N 49°23' E 008°30'7 8.8
2014-Jul-19 02:32N 49°16' E 008°27'1111.2
2014-Jul-19 01:33N 49°06' E 008°21'2 1.6
2014-Jul-19 00:33N 49°04' E 008°20'0 0.0
2014-Jul-18 23:33N 49°04' E 008°20'0 0.0
2014-Jul-18 22:33N 49°04' E 008°20'0 0.2
2014-Jul-18 21:33N 49°04' E 008°20'0 0.0
2014-Jul-18 20:33N 49°04' E 008°20'0 0.0
2014-Jul-18 19:33N 49°04' E 008°20'0 0.0
2014-Jul-18 18:33N 49°04' E 008°20'0 0.0
2014-Jul-18 17:33N 49°04' E 008°20'0 0.0
2014-Jul-18 16:33N 49°04' E 008°20'0 0.0
2014-Jul-18 15:33N 49°04' E 008°20'0 0.0
2014-Jul-18 14:33N 49°04' E 008°20'0 0.2
2014-Jul-18 13:33N 49°04' E 008°20'0 0.0
2014-Jul-18 12:33N 49°04' E 008°20'0 0.0
2014-Jul-18 11:33N 49°04' E 008°20'0 0.0
2014-Jul-18 10:33N 49°04' E 008°20'0 0.0
2014-Jul-18 09:33N 49°04' E 008°20'0 0.0
2014-Jul-18 08:33N 49°04' E 008°20'0 0.0
2014-Jul-18 07:33N 49°04' E 008°20'0 0.0
2014-Jul-18 06:33N 49°04' E 008°20'0 0.0
2014-Jul-18 05:33N 49°04' E 008°20'0 0.0
2014-Jul-18 04:33N 49°04' E 008°20'0 0.0
2014-Jul-18 03:33N 49°04' E 008°20'0 0.0
2014-Jul-18 02:33N 49°04' E 008°20'0 0.0
2014-Jul-18 01:33N 49°04' E 008°20'0 0.0
2014-Jul-18 00:33N 49°04' E 008°20'0 0.0
2014-Jul-17 23:33N 49°04' E 008°20'0 0.0
2014-Jul-17 22:33N 49°04' E 008°20'0 0.0
2014-Jul-17 21:33N 49°04' E 008°20'0 0.5
2014-Jul-17 20:33N 49°05' E 008°20'6 6.1
2014-Jul-17 19:33N 49°11' E 008°23'6 6.0
2014-Jul-17 18:33N 49°16' E 008°27'5 5.0
2014-Jul-17 17:28N 49°21' E 008°29'22610.6
2014-Jul-16 20:06N 51°36' E 003°43'0 0.9
2014-Jul-16 19:33N 51°36' E 003°44'4 4.3
2014-Jul-16 18:33N 51°37' E 003°50'1 0.8
2014-Jul-16 17:33N 51°37' E 003°52'3 3.3
2014-Jul-16 16:33N 51°37' E 003°46'2 1.0
2014-Jul-16 14:16N 51°36' E 003°43'2 2.8
2014-Jul-16 13:33N 51°36' E 003°46'3 3.3
2014-Jul-16 12:33N 51°36' E 003°51'1 0.4
2014-Jul-16 11:23N 51°36' E 003°51'0 0.0
2014-Jul-16 10:29N 51°36' E 003°51'0 0.0
2014-Jul-16 07:33N 51°36' E 003°51'0 0.0
2014-Jul-16 06:33N 51°36' E 003°51'124 2.4
2014-Jul-14 03:23N 50°55' E 006°58'17 1.1
2014-Jul-13 11:33N 51°11' E 006°48'4 3.9
2014-Jul-13 10:34N 51°14' E 006°44'  

Dump ship's entire track history